createdAt,value
2017-09-04T00:01:16.017Z,5.05
2017-09-04T00:03:44.864Z,5.65
2017-09-04T00:06:13.722Z,5.55
2017-09-04T00:08:42.566Z,5.95
2017-09-04T00:11:11.419Z,5.35
2017-09-04T00:13:40.068Z,4.60
2017-09-04T00:16:08.929Z,5.30
2017-09-04T00:18:37.767Z,5.47
2017-09-04T00:21:06.619Z,5.43
2017-09-04T00:23:35.476Z,4.80
2017-09-04T00:26:04.316Z,5.65
2017-09-04T00:28:33.161Z,5.28
2017-09-04T00:31:02.021Z,4.95
2017-09-04T00:33:30.877Z,4.50
2017-09-04T00:35:59.743Z,5.40
2017-09-04T00:38:28.601Z,4.43
2017-09-04T00:40:57.452Z,5.18
2017-09-04T00:43:26.283Z,5.25
2017-09-04T00:45:55.119Z,4.80
2017-09-04T00:48:23.995Z,4.55
2017-09-04T00:50:52.865Z,5.55
2017-09-04T00:53:21.734Z,4.78
2017-09-04T00:55:50.613Z,5.15
2017-09-04T00:58:20.015Z,5.70
2017-09-04T01:00:48.857Z,5.28
2017-09-04T01:03:17.721Z,5.05
2017-09-04T01:05:46.209Z,5.07
2017-09-04T01:08:15.067Z,5.07
2017-09-04T01:10:43.911Z,4.45
2017-09-04T01:13:12.748Z,5.05
2017-09-04T01:15:41.250Z,4.70
2017-09-04T01:18:10.086Z,4.62
2017-09-04T01:20:38.943Z,5.32
2017-09-04T01:23:07.783Z,4.82
2017-09-04T01:25:36.640Z,4.80
2017-09-04T01:28:05.494Z,4.65
2017-09-04T01:30:34.687Z,4.40
2017-09-04T01:33:03.383Z,4.68
2017-09-04T01:35:32.225Z,4.35
2017-09-04T01:38:01.182Z,4.62
2017-09-04T01:40:30.064Z,4.10
2017-09-04T01:42:58.926Z,4.00
2017-09-04T01:45:27.782Z,5.10
2017-09-04T01:47:56.630Z,4.22
2017-09-04T01:50:25.474Z,3.67
2017-09-04T01:52:54.018Z,4.40
2017-09-04T01:55:22.876Z,3.90
2017-09-04T01:57:51.719Z,4.18
2017-09-04T02:00:20.329Z,4.43
2017-09-04T02:02:49.168Z,4.53
2017-09-04T02:05:18.018Z,4.00
2017-09-04T02:07:46.882Z,3.72
2017-09-04T02:10:16.300Z,4.28
2017-09-04T02:12:44.955Z,3.92
2017-09-04T02:15:13.803Z,6.00
2017-09-04T02:17:42.648Z,4.32
2017-09-04T02:20:12.260Z,3.83
2017-09-04T02:22:41.096Z,3.75
2017-09-04T02:25:09.936Z,4.18
2017-09-04T02:27:38.772Z,3.72
2017-09-04T02:30:07.636Z,3.90
2017-09-04T02:32:36.487Z,4.12
2017-09-04T02:35:05.344Z,3.72
2017-09-04T02:37:34.176Z,4.43
2017-09-04T02:40:03.030Z,3.55
2017-09-04T02:42:31.891Z,3.80
2017-09-04T02:45:00.738Z,4.30
2017-09-04T02:47:29.600Z,3.50
2017-09-04T02:49:58.449Z,3.85
2017-09-04T02:52:27.305Z,4.00
2017-09-04T02:54:56.162Z,4.80
2017-09-04T02:57:25.016Z,3.92
2017-09-04T02:59:53.865Z,4.50
2017-09-04T03:02:22.701Z,4.30
2017-09-04T03:04:51.549Z,4.53
2017-09-04T03:07:20.386Z,4.00
2017-09-04T03:09:49.995Z,4.40
2017-09-04T03:12:18.505Z,4.43
2017-09-04T03:14:48.168Z,3.85
2017-09-04T03:17:17.025Z,3.83
2017-09-04T03:19:45.928Z,3.28
2017-09-04T03:22:14.783Z,3.95
2017-09-04T03:24:43.315Z,3.55
2017-09-04T03:27:11.473Z,3.90
2017-09-04T03:29:39.983Z,3.97
2017-09-04T03:32:08.492Z,4.47
2017-09-04T03:34:37.335Z,4.85
2017-09-04T03:37:05.492Z,5.18
2017-09-04T03:39:33.464Z,4.28
2017-09-04T03:42:01.420Z,5.50
2017-09-04T03:44:29.384Z,4.87
2017-09-04T03:46:57.696Z,6.37
2017-09-04T03:49:26.011Z,5.15
2017-09-04T03:51:54.667Z,5.95
2017-09-04T03:54:22.984Z,5.28
2017-09-04T03:56:50.951Z,5.05
2017-09-04T03:59:19.440Z,6.05
2017-09-04T04:01:47.602Z,5.45
2017-09-04T04:04:16.118Z,5.68
2017-09-04T04:06:44.622Z,5.05
2017-09-04T04:09:13.127Z,4.95
2017-09-04T04:11:41.289Z,5.85
2017-09-04T04:14:09.793Z,6.03
2017-09-04T04:16:38.651Z,7.03
2017-09-04T04:19:07.497Z,4.80
2017-09-04T04:21:36.349Z,5.65
2017-09-04T04:24:05.213Z,4.72
2017-09-04T04:26:34.047Z,5.05
2017-09-04T04:29:02.893Z,5.45
2017-09-04T04:31:31.051Z,6.37
2017-09-04T04:33:59.911Z,5.68
2017-09-04T04:36:28.747Z,6.70
2017-09-04T04:38:57.583Z,4.80
2017-09-04T04:41:26.433Z,4.80
2017-09-04T04:43:55.304Z,5.03
2017-09-04T04:46:24.180Z,5.53
2017-09-04T04:48:53.026Z,4.93
2017-09-04T04:51:21.667Z,4.87
2017-09-04T04:53:50.509Z,5.10
2017-09-04T04:56:19.347Z,4.85
2017-09-04T04:58:48.205Z,6.28
2017-09-04T05:01:17.069Z,5.47
2017-09-04T05:03:45.912Z,5.30
2017-09-04T05:06:15.536Z,4.78
2017-09-04T05:08:44.373Z,5.25
2017-09-04T05:11:13.229Z,5.15
2017-09-04T05:13:42.820Z,5.47
2017-09-04T05:16:11.700Z,5.95
2017-09-04T05:18:40.557Z,5.05
2017-09-04T05:21:09.396Z,4.93
2017-09-04T05:23:38.245Z,5.70
2017-09-04T05:26:07.085Z,5.75
2017-09-04T05:28:35.961Z,5.70
2017-09-04T05:31:04.791Z,5.55
2017-09-04T05:33:33.643Z,5.25
2017-09-04T05:36:03.248Z,5.95
2017-09-04T05:38:32.110Z,6.05
2017-09-04T05:41:00.956Z,7.97
2017-09-04T05:43:29.796Z,6.55
2017-09-04T05:45:58.635Z,5.18
2017-09-04T05:48:27.188Z,6.43
2017-09-04T05:50:56.041Z,5.72
2017-09-04T05:53:24.880Z,6.12
2017-09-04T05:55:53.728Z,5.80
2017-09-04T05:58:22.563Z,5.22
2017-09-04T06:00:51.440Z,5.72
2017-09-04T06:03:20.276Z,5.03
2017-09-04T06:05:49.126Z,5.45
2017-09-04T06:08:17.976Z,5.37
2017-09-04T06:10:46.819Z,5.60
2017-09-04T06:13:15.682Z,5.95
2017-09-04T06:15:44.566Z,5.45
2017-09-04T06:18:13.397Z,6.75
2017-09-04T06:20:42.241Z,5.75
2017-09-04T06:23:11.076Z,5.12
2017-09-04T06:25:39.939Z,6.20
2017-09-04T06:28:08.818Z,5.50
2017-09-04T06:30:37.671Z,6.37
2017-09-04T06:33:06.525Z,6.57
2017-09-04T06:35:35.373Z,6.15
2017-09-04T06:38:04.234Z,5.40
2017-09-04T06:40:33.083Z,6.00
2017-09-04T06:43:01.920Z,6.68
2017-09-04T06:45:30.783Z,5.25
2017-09-04T06:47:59.663Z,6.18
2017-09-04T06:50:28.323Z,6.35
2017-09-04T06:52:57.168Z,7.43
2017-09-04T06:55:26.006Z,6.50
2017-09-04T06:57:54.875Z,5.85
2017-09-04T07:00:23.536Z,6.35
2017-09-04T07:02:52.394Z,5.75
2017-09-04T07:05:21.231Z,5.80
2017-09-04T07:07:50.109Z,6.50
2017-09-04T07:10:18.952Z,6.57
2017-09-04T07:12:47.811Z,6.18
2017-09-04T07:15:16.669Z,5.50
2017-09-04T07:17:45.501Z,7.45
2017-09-04T07:20:14.351Z,6.45
2017-09-04T07:22:43.229Z,5.70
2017-09-04T07:25:12.093Z,6.30
2017-09-04T07:27:40.961Z,6.40
2017-09-04T07:30:10.157Z,6.47
2017-09-04T07:32:39.005Z,6.43
2017-09-04T07:35:07.880Z,6.85
2017-09-04T07:37:37.517Z,6.55
2017-09-04T07:40:06.366Z,6.28
2017-09-04T07:42:35.219Z,5.97
2017-09-04T07:45:04.071Z,5.72
2017-09-04T07:47:32.921Z,7.25
2017-09-04T07:50:01.777Z,6.62
2017-09-04T07:52:30.651Z,7.22
2017-09-04T07:54:59.528Z,8.02
2017-09-04T07:57:28.376Z,7.57
2017-09-04T07:59:56.901Z,7.25
2017-09-04T08:02:26.531Z,6.18
2017-09-04T08:04:55.400Z,6.75
2017-09-04T08:07:24.055Z,6.20
2017-09-04T08:09:52.903Z,6.75
2017-09-04T08:12:21.760Z,6.80
2017-09-04T08:14:50.416Z,6.32
2017-09-04T08:17:19.271Z,6.40
2017-09-04T08:19:48.127Z,6.32
2017-09-04T08:22:16.983Z,7.07
2017-09-04T08:24:46.117Z,8.13
2017-09-04T08:27:14.970Z,8.05
2017-09-04T08:29:43.812Z,6.50
2017-09-04T08:32:12.673Z,7.82
2017-09-04T08:34:42.967Z,7.30
2017-09-04T08:37:11.826Z,7.75
2017-09-04T08:39:40.690Z,7.62
2017-09-04T08:42:09.533Z,6.93
2017-09-04T08:44:38.196Z,7.75
2017-09-04T08:47:07.053Z,7.68
2017-09-04T08:49:36.539Z,6.15
2017-09-04T08:52:05.405Z,6.28
2017-09-04T08:54:34.286Z,5.43
2017-09-04T08:57:03.131Z,5.35
2017-09-04T08:59:31.998Z,4.45
2017-09-04T09:02:00.156Z,4.80
2017-09-04T09:04:28.801Z,3.90
2017-09-04T09:06:58.409Z,2.87
2017-09-04T09:09:28.034Z,3.12
2017-09-04T09:11:56.893Z,4.03
2017-09-04T09:14:26.197Z,2.97
2017-09-04T09:16:55.748Z,2.70
2017-09-04T09:19:24.609Z,4.55
2017-09-04T09:21:53.469Z,2.62
2017-09-04T09:24:22.148Z,2.67
2017-09-04T09:26:50.803Z,2.15
2017-09-04T09:29:19.487Z,2.80
2017-09-04T09:31:48.158Z,2.12
2017-09-04T09:34:17.018Z,2.60
2017-09-04T09:36:45.858Z,2.30
2017-09-04T09:39:14.714Z,2.20
2017-09-04T09:41:43.565Z,2.62
2017-09-04T09:44:12.426Z,2.40
2017-09-04T09:49:16.377Z,2.87
2017-09-04T09:51:45.832Z,2.62
2017-09-04T09:54:14.512Z,1.92
2017-09-04T09:56:43.172Z,2.30
2017-09-04T09:59:11.823Z,2.35
2017-09-04T10:01:40.517Z,2.80
2017-09-04T10:04:09.180Z,2.60
2017-09-04T10:06:37.853Z,2.20
2017-09-04T10:09:06.538Z,2.40
2017-09-04T10:11:35.209Z,2.40
2017-09-04T10:14:03.872Z,2.65
2017-09-04T10:16:32.528Z,2.20
2017-09-04T10:19:01.215Z,2.53
2017-09-04T10:21:29.903Z,2.50
2017-09-04T10:23:58.548Z,2.00
2017-09-04T10:26:27.213Z,2.58
2017-09-04T10:28:55.885Z,2.20
2017-09-04T10:31:24.585Z,3.05
2017-09-04T10:33:53.236Z,2.37
2017-09-04T10:36:21.908Z,2.55
2017-09-04T10:38:50.576Z,2.80
2017-09-04T10:41:19.238Z,2.30
2017-09-04T10:43:47.599Z,2.15
2017-09-04T10:46:17.084Z,2.00
2017-09-04T10:48:45.740Z,2.22
2017-09-04T10:51:14.410Z,2.33
2017-09-04T10:53:43.059Z,2.55
2017-09-04T10:56:11.934Z,1.83
2017-09-04T10:58:41.584Z,2.10
2017-09-04T11:01:11.010Z,2.37
2017-09-04T11:03:39.728Z,1.92
2017-09-04T11:06:08.597Z,2.10
2017-09-04T11:08:37.453Z,1.90
2017-09-04T11:11:06.499Z,1.85
2017-09-04T11:13:35.165Z,2.28
2017-09-04T11:16:03.842Z,2.42
2017-09-04T11:18:33.273Z,2.12
2017-09-04T11:21:01.952Z,2.50
2017-09-04T11:23:30.643Z,1.80
2017-09-04T11:25:59.051Z,2.70
2017-09-04T11:28:27.715Z,2.37
2017-09-04T11:30:56.110Z,2.05
2017-09-04T11:33:24.776Z,1.85
2017-09-04T11:35:53.444Z,2.60
2017-09-04T11:38:23.070Z,2.65
2017-09-04T11:40:51.934Z,1.80
2017-09-04T11:43:20.809Z,2.20
2017-09-04T11:45:49.729Z,1.92
2017-09-04T11:48:18.597Z,1.90
2017-09-04T11:50:47.440Z,2.20
2017-09-04T11:53:16.093Z,1.90
2017-09-04T11:55:44.944Z,2.20
2017-09-04T11:58:13.790Z,1.70
2017-09-04T12:00:42.473Z,1.77
2017-09-04T12:03:11.326Z,2.15
2017-09-04T12:05:40.190Z,2.55
2017-09-04T12:08:08.844Z,2.25
2017-09-04T12:10:37.504Z,2.35
2017-09-04T12:13:06.949Z,1.80
2017-09-04T12:15:35.801Z,2.55
2017-09-04T12:18:04.648Z,1.62
2017-09-04T12:20:33.501Z,1.83
2017-09-04T12:23:02.151Z,1.77
2017-09-04T12:25:30.831Z,1.45
2017-09-04T12:27:59.504Z,1.90
2017-09-04T12:30:28.363Z,2.05
2017-09-04T12:32:57.218Z,1.92
2017-09-04T12:35:26.068Z,1.95
2017-09-04T12:37:54.929Z,2.45
2017-09-04T12:40:23.781Z,1.73
2017-09-04T12:42:52.639Z,1.90
2017-09-04T12:45:21.489Z,1.40
2017-09-04T12:47:50.337Z,1.70
2017-09-04T12:50:18.999Z,1.73
2017-09-04T12:52:47.852Z,1.77
2017-09-04T12:55:16.679Z,1.70
2017-09-04T12:57:45.528Z,1.52
2017-09-04T13:00:14.385Z,1.70
2017-09-04T13:02:43.241Z,2.00
2017-09-04T13:05:11.908Z,1.70
2017-09-04T13:07:40.571Z,1.83
2017-09-04T13:10:14.913Z,2.03
2017-09-04T13:12:43.585Z,2.00
2017-09-04T13:15:17.930Z,1.48
2017-09-04T13:20:59.271Z,1.40
2017-09-04T13:23:33.600Z,1.30
2017-09-04T13:26:07.887Z,2.22
2017-09-04T13:28:52.236Z,2.62
2017-09-04T13:31:21.831Z,2.08
2017-09-04T13:33:56.078Z,1.90
2017-09-04T13:36:41.433Z,1.95
2017-09-04T13:39:15.872Z,1.50
2017-09-04T13:41:50.301Z,2.42
2017-09-04T13:44:24.575Z,2.20
2017-09-04T13:47:12.493Z,2.28
2017-09-04T13:49:42.105Z,2.28
2017-09-04T13:52:16.583Z,2.30
2017-09-04T13:55:02.927Z,2.30
2017-09-04T14:00:43.671Z,2.40
2017-09-04T14:03:27.966Z,2.40
2017-09-04T14:06:02.258Z,2.20
2017-09-04T14:08:36.455Z,1.80
2017-09-04T14:11:24.820Z,2.80
2017-09-04T14:13:59.334Z,1.60
2017-09-04T14:16:46.881Z,2.35
2017-09-04T14:19:15.757Z,2.40
2017-09-04T14:21:44.429Z,2.67
2017-09-04T14:24:13.088Z,1.70
2017-09-04T14:26:42.437Z,1.73
2017-09-04T14:29:11.128Z,2.37
2017-09-04T14:31:39.788Z,2.03
2017-09-04T14:34:08.458Z,2.10
2017-09-04T14:36:37.308Z,2.12
2017-09-04T14:39:06.005Z,2.35
2017-09-04T14:41:34.671Z,2.10
2017-09-04T14:44:13.269Z,2.85
2017-09-04T14:46:48.093Z,2.50
2017-09-04T14:49:16.756Z,2.65
2017-09-04T14:51:45.424Z,2.15
2017-09-04T14:54:14.094Z,2.08
2017-09-04T14:56:43.251Z,2.05
2017-09-04T14:59:11.915Z,2.97
2017-09-04T15:01:41.529Z,2.70
2017-09-04T15:04:10.397Z,1.80
2017-09-04T15:06:39.063Z,2.50
2017-09-04T15:09:07.737Z,2.35
2017-09-04T15:11:36.416Z,2.45
2017-09-04T15:14:05.307Z,2.30
2017-09-04T15:16:33.998Z,2.45
2017-09-04T15:19:02.670Z,2.40
2017-09-04T15:21:31.343Z,2.65
2017-09-04T15:24:00.955Z,2.75
2017-09-04T15:26:29.635Z,2.10
2017-09-04T15:28:58.295Z,2.55
2017-09-04T15:31:26.954Z,2.42
2017-09-04T15:33:55.611Z,2.20
2017-09-04T15:36:24.277Z,2.25
2017-09-04T15:38:52.932Z,2.10
2017-09-04T15:41:21.591Z,2.65
2017-09-04T15:43:50.262Z,3.08
2017-09-04T15:46:18.936Z,2.72
2017-09-04T15:48:47.596Z,2.70
2017-09-04T15:51:16.271Z,2.30
2017-09-04T15:53:44.947Z,2.12
2017-09-04T15:56:13.614Z,2.15
2017-09-04T15:58:42.284Z,2.80
2017-09-04T16:01:10.948Z,2.35
2017-09-04T16:03:39.635Z,2.20
2017-09-04T16:06:18.233Z,1.83
2017-09-04T16:08:46.925Z,2.50
2017-09-04T16:11:15.589Z,2.25
2017-09-04T16:13:58.139Z,2.37
2017-09-04T16:16:27.605Z,1.92
2017-09-04T16:18:56.753Z,2.05
2017-09-04T16:21:32.971Z,1.80
2017-09-04T16:24:04.620Z,2.12
2017-09-04T16:26:34.266Z,2.00
2017-09-04T16:29:13.655Z,1.80
2017-09-04T16:32:00.060Z,1.90
2017-09-04T16:34:34.350Z,2.55
2017-09-04T16:37:18.378Z,1.90
2017-09-04T16:39:47.083Z,2.22
2017-09-04T16:42:34.572Z,1.85
2017-09-04T16:45:19.121Z,2.55
2017-09-04T16:47:47.777Z,2.25
2017-09-04T16:50:17.209Z,2.10
2017-09-04T16:53:01.665Z,2.15
2017-09-04T16:55:30.328Z,1.95
2017-09-04T16:57:59.937Z,1.90
2017-09-04T17:00:28.609Z,1.95
2017-09-04T17:02:57.634Z,2.40
2017-09-04T17:05:26.313Z,2.40
2017-09-04T17:07:54.985Z,2.47
2017-09-04T17:10:26.453Z,2.17
2017-09-04T17:12:55.182Z,2.00
2017-09-04T17:15:24.629Z,2.30
2017-09-04T17:18:03.202Z,4.12
2017-09-04T17:20:32.324Z,3.30
2017-09-04T17:23:01.474Z,2.33
2017-09-04T17:25:40.851Z,1.90
2017-09-04T17:28:09.177Z,2.53
2017-09-04T17:30:37.843Z,2.28
2017-09-04T17:33:07.545Z,2.42
2017-09-04T17:35:51.098Z,1.87
2017-09-04T17:38:19.764Z,2.10
2017-09-04T17:40:48.487Z,2.03
2017-09-04T17:43:18.059Z,1.90
2017-09-04T17:45:46.744Z,3.28
2017-09-04T17:48:15.446Z,2.62
2017-09-04T17:50:44.130Z,2.90
2017-09-04T17:53:12.812Z,2.28
2017-09-04T17:55:41.478Z,2.58
2017-09-04T17:58:10.166Z,1.90
2017-09-04T18:00:39.360Z,2.70
2017-09-04T18:03:08.216Z,2.90
2017-09-04T18:05:37.064Z,2.75
2017-09-04T18:08:05.948Z,2.45
2017-09-04T18:10:34.817Z,2.40
2017-09-04T18:13:03.657Z,2.28
2017-09-04T18:15:32.520Z,2.08
2017-09-04T18:18:01.367Z,2.90
2017-09-04T18:20:30.820Z,3.10
2017-09-04T18:22:59.490Z,2.78
2017-09-04T18:25:28.328Z,2.50
2017-09-04T18:27:57.178Z,2.75
2017-09-04T18:30:26.044Z,3.00
2017-09-04T18:32:54.701Z,2.87
2017-09-04T18:35:23.538Z,2.97
2017-09-04T18:37:52.418Z,3.22
2017-09-04T18:40:21.279Z,2.55
2017-09-04T18:42:49.970Z,3.10
2017-09-04T18:45:18.643Z,3.30
2017-09-04T18:47:47.296Z,3.30
2017-09-04T18:50:15.952Z,2.90
2017-09-04T18:52:44.612Z,3.42
2017-09-04T18:55:14.075Z,3.10
2017-09-04T18:57:42.732Z,3.35
2017-09-04T19:00:12.325Z,3.47
2017-09-04T19:02:41.167Z,3.35
2017-09-04T19:05:09.846Z,3.47
2017-09-04T19:07:38.516Z,3.20
2017-09-04T19:10:07.376Z,3.08
2017-09-04T19:12:36.322Z,2.97
2017-09-04T19:15:04.976Z,3.22
2017-09-04T19:17:33.635Z,3.22
2017-09-04T19:20:02.314Z,3.15
2017-09-04T19:22:31.156Z,3.30
2017-09-04T19:24:59.908Z,3.60
2017-09-04T19:27:28.572Z,3.47
2017-09-04T19:29:57.226Z,3.50
2017-09-04T19:32:25.900Z,4.05
2017-09-04T19:34:54.757Z,3.80
2017-09-04T19:37:23.412Z,4.87
2017-09-04T19:39:52.066Z,4.62
2017-09-04T19:42:20.729Z,5.00
2017-09-04T19:44:49.407Z,4.43
2017-09-04T19:47:18.060Z,5.90
2017-09-04T19:49:46.943Z,5.10
2017-09-04T19:52:15.622Z,5.00
2017-09-04T19:54:44.373Z,4.87
2017-09-04T19:57:13.024Z,3.83
2017-09-04T19:59:41.703Z,4.95
2017-09-04T20:02:10.368Z,5.10
2017-09-04T20:04:39.019Z,5.45
2017-09-04T20:07:09.042Z,5.07
2017-09-04T20:09:37.742Z,5.50
2017-09-04T20:12:06.403Z,5.30
2017-09-04T20:14:35.061Z,6.20
2017-09-04T20:17:03.733Z,5.32
2017-09-04T20:19:32.402Z,5.78
2017-09-04T20:22:01.421Z,6.05
2017-09-04T20:24:30.088Z,5.30
2017-09-04T20:26:59.227Z,5.10
2017-09-04T20:29:28.077Z,6.03
2017-09-04T20:31:56.933Z,5.87
2017-09-04T20:34:25.788Z,5.35
2017-09-04T20:36:54.641Z,5.50
2017-09-04T20:39:23.546Z,6.50
2017-09-04T20:41:52.416Z,6.80
2017-09-04T20:44:21.111Z,6.50
2017-09-04T20:46:49.975Z,6.87
2017-09-04T20:49:19.566Z,6.10
2017-09-04T20:51:48.232Z,7.30
2017-09-04T20:54:17.142Z,7.20
2017-09-04T20:56:45.998Z,7.07
2017-09-04T20:59:14.657Z,6.12
2017-09-04T21:01:43.525Z,8.40
2017-09-04T21:04:12.193Z,6.43
2017-09-04T21:06:41.038Z,6.32
2017-09-04T21:09:09.707Z,6.87
2017-09-04T21:11:38.365Z,6.95
2017-09-04T21:14:07.035Z,7.47
2017-09-04T21:16:35.709Z,6.28
2017-09-04T21:19:04.380Z,6.82
2017-09-04T21:21:33.997Z,6.15
2017-09-04T21:24:02.669Z,7.00
2017-09-04T21:26:31.332Z,6.75
2017-09-04T21:28:59.987Z,6.80
2017-09-04T21:31:28.651Z,7.47
2017-09-04T21:33:57.316Z,6.95
2017-09-04T21:36:26.005Z,6.72
2017-09-04T21:38:54.667Z,6.70
2017-09-04T21:41:23.347Z,7.28
2017-09-04T21:43:52.003Z,6.75
2017-09-04T21:46:20.874Z,7.15
2017-09-04T21:48:49.739Z,7.47
2017-09-04T21:51:18.632Z,6.82
2017-09-04T21:53:47.485Z,7.12
2017-09-04T21:56:16.363Z,6.80
2017-09-04T21:58:45.230Z,6.60
2017-09-04T22:01:14.090Z,6.43
2017-09-04T22:03:42.952Z,8.05
2017-09-04T22:06:11.812Z,6.53
2017-09-04T22:08:40.670Z,7.90
2017-09-04T22:11:09.534Z,6.80
2017-09-04T22:13:38.371Z,6.90
2017-09-04T22:16:07.201Z,7.20
2017-09-04T22:18:36.065Z,7.95
2017-09-04T22:21:08.929Z,7.65
2017-09-04T22:23:37.801Z,7.37
2017-09-04T22:26:06.470Z,7.35
2017-09-04T22:28:35.317Z,8.05
2017-09-04T22:31:03.977Z,8.10
2017-09-04T22:33:32.631Z,7.35
2017-09-04T22:36:01.305Z,8.18
2017-09-04T22:38:29.988Z,8.20
2017-09-04T22:40:58.833Z,7.10
2017-09-04T22:43:27.693Z,7.68
2017-09-04T22:45:56.374Z,8.25
2017-09-04T22:48:25.049Z,7.75
2017-09-04T22:50:53.729Z,8.18
2017-09-04T22:53:22.387Z,8.30
2017-09-04T22:55:51.043Z,7.25
2017-09-04T22:58:20.168Z,6.35
2017-09-04T23:00:48.157Z,7.25
2017-09-04T23:03:16.833Z,8.00
2017-09-04T23:05:45.509Z,7.20
2017-09-04T23:08:14.179Z,7.70
2017-09-04T23:10:42.891Z,7.15
2017-09-04T23:13:11.551Z,7.87
2017-09-04T23:15:40.443Z,8.48
2017-09-04T23:18:09.119Z,7.22
2017-09-04T23:20:37.788Z,7.10
2017-09-04T23:23:06.632Z,7.18
2017-09-04T23:25:35.292Z,7.80
2017-09-04T23:28:04.151Z,7.25
2017-09-04T23:30:33.036Z,8.57
2017-09-04T23:33:01.890Z,6.93
2017-09-04T23:35:30.757Z,6.75
2017-09-04T23:37:59.603Z,6.87
2017-09-04T23:40:28.252Z,7.12
2017-09-04T23:42:57.101Z,7.15
2017-09-04T23:45:25.968Z,7.15
2017-09-04T23:47:54.624Z,7.40
2017-09-04T23:50:23.479Z,6.62
2017-09-04T23:52:52.139Z,6.45
2017-09-04T23:55:20.799Z,5.82
2017-09-04T23:57:49.461Z,5.95
